createdAt,value
2022-12-19T00:02:55.333Z,51.65
2022-12-19T00:07:59.008Z,51.90
2022-12-19T00:13:04.452Z,52.55
2022-12-19T00:18:05.871Z,50.53
2022-12-19T00:23:07.732Z,57.88
2022-12-19T00:28:09.113Z,59.75
2022-12-19T00:33:10.512Z,57.65
2022-12-19T00:38:11.906Z,54.03
2022-12-19T00:43:13.245Z,54.20
2022-12-19T00:48:14.732Z,61.40
2022-12-19T00:53:18.990Z,60.25
2022-12-19T00:58:20.351Z,62.92
2022-12-19T01:03:21.786Z,54.80
2022-12-19T01:08:23.231Z,59.30
2022-12-19T01:13:26.651Z,59.65
2022-12-19T01:18:29.919Z,55.38
2022-12-19T01:23:31.296Z,56.03
2022-12-19T01:28:32.712Z,57.17
2022-12-19T01:33:34.081Z,52.20
2022-12-19T01:38:36.039Z,55.42
2022-12-19T01:43:55.953Z,54.15
2022-12-19T01:48:57.508Z,55.15
2022-12-19T01:53:59.999Z,49.90
2022-12-19T01:59:06.453Z,51.85
2022-12-19T02:04:08.681Z,45.63
2022-12-19T02:09:11.051Z,48.17
2022-12-19T02:14:12.545Z,51.50
2022-12-19T02:19:36.963Z,49.35
2022-12-19T02:24:41.641Z,44.78
2022-12-19T02:29:42.977Z,48.75
2022-12-19T02:34:46.262Z,49.22
2022-12-19T02:39:47.686Z,52.78
2022-12-19T02:44:51.786Z,48.92
2022-12-19T02:49:53.231Z,53.85
2022-12-19T02:54:58.472Z,46.88
2022-12-19T03:00:11.098Z,48.55
2022-12-19T03:05:31.190Z,53.88
2022-12-19T03:10:48.075Z,59.40
2022-12-19T03:15:49.878Z,51.50
2022-12-19T03:21:03.345Z,57.45
2022-12-19T03:26:10.553Z,54.17
2022-12-19T03:31:12.625Z,50.63
2022-12-19T03:36:17.461Z,54.20
2022-12-19T03:41:42.508Z,48.10
2022-12-19T03:46:46.225Z,50.15
2022-12-19T03:52:08.382Z,47.97
2022-12-19T03:57:14.956Z,46.28
2022-12-19T04:02:17.786Z,51.95
2022-12-19T04:07:19.683Z,43.58
2022-12-19T04:12:26.608Z,47.80
2022-12-19T04:17:34.574Z,45.38
2022-12-19T04:22:47.002Z,47.55
2022-12-19T04:27:52.155Z,44.67
2022-12-19T04:32:53.932Z,39.28
2022-12-19T04:37:55.684Z,36.33
2022-12-19T04:42:57.076Z,39.67
2022-12-19T04:47:58.498Z,40.83
2022-12-19T04:53:00.418Z,38.47
2022-12-19T04:58:02.005Z,37.40
2022-12-19T05:03:03.581Z,36.90
2022-12-19T05:08:05.255Z,34.55
2022-12-19T05:13:06.797Z,32.15
2022-12-19T05:18:08.245Z,30.13
2022-12-19T05:23:16.223Z,25.90
2022-12-19T05:28:19.113Z,20.07
2022-12-19T05:33:20.577Z,20.73
2022-12-19T05:38:22.017Z,20.20
2022-12-19T05:43:23.410Z,23.65
2022-12-19T05:48:24.852Z,25.33
2022-12-19T05:53:28.095Z,23.15
2022-12-19T05:58:29.490Z,21.92
2022-12-19T06:03:31.018Z,20.05
2022-12-19T06:08:32.518Z,19.70
2022-12-19T06:13:34.394Z,21.73
2022-12-19T06:18:39.386Z,18.73
2022-12-19T06:23:43.528Z,17.52
2022-12-19T06:28:45.090Z,17.63
2022-12-19T06:33:46.576Z,18.48
2022-12-19T06:38:48.257Z,19.60
2022-12-19T06:43:53.457Z,18.95
2022-12-19T06:48:55.264Z,18.83
2022-12-19T06:53:59.182Z,19.55
2022-12-19T06:59:00.658Z,20.92
2022-12-19T07:04:02.173Z,21.38
2022-12-19T07:09:03.618Z,24.10
2022-12-19T07:14:05.003Z,22.48
2022-12-19T07:19:10.048Z,21.60
2022-12-19T07:24:12.496Z,21.90
2022-12-19T07:29:14.049Z,22.58
2022-12-19T07:34:15.411Z,24.85
2022-12-19T07:39:16.853Z,23.50
2022-12-19T07:44:18.208Z,22.83
2022-12-19T07:49:22.644Z,23.27
2022-12-19T07:54:27.141Z,22.42
2022-12-19T07:59:32.280Z,24.65
2022-12-19T08:04:37.195Z,25.25
2022-12-19T08:09:39.252Z,26.10
2022-12-19T08:14:40.760Z,23.80
2022-12-19T08:19:42.219Z,26.67
2022-12-19T08:24:43.650Z,27.50
2022-12-19T08:29:45.051Z,28.63
2022-12-19T08:34:46.470Z,26.15
2022-12-19T08:39:47.939Z,27.83
2022-12-19T08:44:49.344Z,25.95
2022-12-19T08:49:50.726Z,27.27
2022-12-19T08:54:52.762Z,25.80
2022-12-19T08:59:54.146Z,20.20
2022-12-19T09:06:01.367Z,23.48
2022-12-19T09:10:17.634Z,22.42
2022-12-19T09:15:19.731Z,21.65
2022-12-19T09:20:23.343Z,22.73
2022-12-19T09:25:25.828Z,24.83
2022-12-19T09:30:29.041Z,24.48
2022-12-19T09:35:31.488Z,21.98
2022-12-19T09:40:42.981Z,19.58
2022-12-19T09:46:00.892Z,22.45
2022-12-19T09:51:11.452Z,21.90
2022-12-19T09:56:14.810Z,22.42
2022-12-19T10:01:29.683Z,20.52
2022-12-19T10:07:11.198Z,22.50
2022-12-19T10:12:43.159Z,20.98
2022-12-19T10:17:33.201Z,20.97
2022-12-19T10:22:34.519Z,20.48
2022-12-19T10:27:59.195Z,19.17
2022-12-19T10:33:07.176Z,18.80
2022-12-19T10:38:47.347Z,18.55
2022-12-19T10:44:02.627Z,18.80
2022-12-19T10:49:11.980Z,18.70
2022-12-19T10:54:14.590Z,21.05
2022-12-19T10:59:17.520Z,18.13
2022-12-19T11:04:29.205Z,17.17
2022-12-19T11:09:40.831Z,19.10
2022-12-19T11:21:21.975Z,18.40
2022-12-19T11:29:19.365Z,21.23
2022-12-19T11:30:43.748Z,19.77
2022-12-19T11:37:04.624Z,17.65
2022-12-19T11:42:15.574Z,15.93
2022-12-19T11:47:43.038Z,16.25
2022-12-19T11:53:05.096Z,15.82
2022-12-19T11:58:09.499Z,17.80
2022-12-19T12:03:13.732Z,19.05
2022-12-19T12:11:25.882Z,18.13
2022-12-19T12:24:05.015Z,17.70
2022-12-19T12:31:00.803Z,17.27
2022-12-19T12:31:11.208Z,17.40
2022-12-19T12:31:58.822Z,17.67
2022-12-19T12:41:21.452Z,18.35
2022-12-19T12:46:27.699Z,16.30
2022-12-19T12:51:32.458Z,18.27
2022-12-19T12:56:34.688Z,16.05
2022-12-19T13:01:37.230Z,16.10
2022-12-19T13:06:38.736Z,17.40
2022-12-19T13:12:00.115Z,20.88
2022-12-19T13:17:04.331Z,16.33
2022-12-19T13:22:09.430Z,17.92
2022-12-19T13:27:31.170Z,17.35
2022-12-19T13:32:39.633Z,14.70
2022-12-19T13:40:00.635Z,18.40
2022-12-19T13:43:25.581Z,16.08
2022-12-19T13:48:36.411Z,15.60
2022-12-19T13:53:40.144Z,15.48
2022-12-19T13:58:49.666Z,16.15
2022-12-19T14:03:53.428Z,15.45
2022-12-19T14:09:37.377Z,16.25
2022-12-19T14:14:38.520Z,16.15
2022-12-19T14:19:41.426Z,14.90
2022-12-19T14:24:53.482Z,15.82
2022-12-19T14:30:28.283Z,17.45
2022-12-19T14:36:08.840Z,15.75
2022-12-19T14:41:00.093Z,13.18
2022-12-19T14:54:03.916Z,15.38
2022-12-19T14:54:30.494Z,16.20
2022-12-19T14:57:03.538Z,12.98
2022-12-19T15:02:08.128Z,17.20
2022-12-19T15:07:13.732Z,14.05
2022-12-19T15:14:55.046Z,16.17
2022-12-19T15:18:18.177Z,15.95
2022-12-19T15:23:22.689Z,15.27
2022-12-19T15:28:34.471Z,17.83
2022-12-19T15:33:35.931Z,15.77
2022-12-19T15:38:37.412Z,15.63
2022-12-19T15:44:03.233Z,16.92
2022-12-19T15:49:01.255Z,15.73
2022-12-19T15:54:38.406Z,15.48
2022-12-19T15:59:37.751Z,15.15
2022-12-19T16:04:39.959Z,14.85
2022-12-19T16:09:41.564Z,15.50
2022-12-19T16:14:43.281Z,17.42
2022-12-19T16:19:44.760Z,14.73
2022-12-19T16:24:47.698Z,15.60
2022-12-19T16:29:49.557Z,13.82
2022-12-19T16:34:51.776Z,15.05
2022-12-19T16:39:53.349Z,16.88
2022-12-19T16:44:54.849Z,15.75
2022-12-19T16:49:57.741Z,14.73
2022-12-19T16:54:59.178Z,14.18
2022-12-19T17:00:00.697Z,15.13
2022-12-19T17:05:02.149Z,14.18
2022-12-19T17:10:03.665Z,16.23
2022-12-19T17:15:07.814Z,15.57
2022-12-19T17:20:31.913Z,14.73
2022-12-19T17:25:33.430Z,14.52
2022-12-19T17:30:36.462Z,14.50
2022-12-19T17:35:37.934Z,12.98
2022-12-19T17:40:39.939Z,14.05
2022-12-19T17:45:41.668Z,14.05
2022-12-19T17:50:44.736Z,15.30
2022-12-19T17:55:47.073Z,16.08
2022-12-19T18:00:49.743Z,15.82
2022-12-19T18:05:52.168Z,16.25
2022-12-19T18:10:54.432Z,14.82
2022-12-19T18:15:57.123Z,15.82
2022-12-19T18:21:01.943Z,18.25
2022-12-19T18:26:03.848Z,16.98
2022-12-19T18:31:37.681Z,14.32
2022-12-19T18:36:40.192Z,15.13
2022-12-19T18:41:41.588Z,15.75
2022-12-19T18:46:46.266Z,15.45
2022-12-19T18:51:47.732Z,15.25
2022-12-19T18:56:49.302Z,14.27
2022-12-19T19:01:50.916Z,16.52
2022-12-19T19:06:55.167Z,15.00
2022-12-19T19:11:56.562Z,13.80
2022-12-19T19:16:58.086Z,15.30
2022-12-19T19:21:59.722Z,15.82
2022-12-19T19:27:01.234Z,18.42
2022-12-19T19:32:02.728Z,13.18
2022-12-19T19:37:05.986Z,14.15
2022-12-19T19:42:07.554Z,14.00
2022-12-19T19:47:11.060Z,13.52
2022-12-19T19:52:12.429Z,13.68
2022-12-19T19:57:14.189Z,16.90
2022-12-19T20:02:16.889Z,18.20
2022-12-19T20:07:18.631Z,16.70
2022-12-19T20:12:21.241Z,15.45
2022-12-19T20:17:22.743Z,16.95
2022-12-19T20:22:24.254Z,13.55
2022-12-19T20:27:25.675Z,16.83
2022-12-19T20:32:27.127Z,15.52
2022-12-19T20:37:28.529Z,17.42
2022-12-19T20:42:31.933Z,14.93
2022-12-19T20:47:33.320Z,19.33
2022-12-19T20:52:34.824Z,15.57
2022-12-19T20:57:36.502Z,14.27
2022-12-19T21:03:16.681Z,14.65
2022-12-19T21:08:00.122Z,14.52
2022-12-19T21:13:01.574Z,14.10
2022-12-19T21:18:02.946Z,14.38
2022-12-19T21:23:04.929Z,15.27
2022-12-19T21:28:06.601Z,18.50
2022-12-19T21:33:08.565Z,18.98
2022-12-19T21:38:10.014Z,17.65
2022-12-19T21:43:12.244Z,14.02
2022-12-19T21:48:13.884Z,13.65
2022-12-19T21:53:15.615Z,14.30
2022-12-19T21:58:17.014Z,14.60
2022-12-19T22:03:18.587Z,18.38
2022-12-19T22:08:20.125Z,14.60
2022-12-19T22:13:21.583Z,16.60
2022-12-19T22:18:22.996Z,14.40
2022-12-19T22:23:24.402Z,13.63
2022-12-19T22:28:25.762Z,17.85
2022-12-19T22:33:27.556Z,14.43
2022-12-19T22:38:29.018Z,14.65
2022-12-19T22:43:30.970Z,15.25
2022-12-19T22:48:32.341Z,16.17
2022-12-19T22:53:34.972Z,15.00
2022-12-19T22:58:37.185Z,22.08
2022-12-19T23:03:38.653Z,15.07
2022-12-19T23:08:40.541Z,13.75
2022-12-19T23:13:42.089Z,13.98
2022-12-19T23:18:43.934Z,13.32
2022-12-19T23:23:46.551Z,16.45
2022-12-19T23:28:52.740Z,15.15
2022-12-19T23:33:54.570Z,14.70
2022-12-19T23:38:56.409Z,13.23
2022-12-19T23:43:59.050Z,13.48
2022-12-19T23:49:00.461Z,14.25
2022-12-19T23:54:01.933Z,16.40
2022-12-19T23:59:03.463Z,15.30
